sensor_id;sensor_type;location;lat;lon;timestamp;P1;durP1;ratioP1;P2;durP2;ratioP2
64653;SDS011;51065;48.884;12.598;2023-09-30T00:00:35;20.38;;;5.82;;
64653;SDS011;51065;48.884;12.598;2023-09-30T00:03:01;20.70;;;7.03;;
64653;SDS011;51065;48.884;12.598;2023-09-30T00:05:28;18.92;;;5.53;;
64653;SDS011;51065;48.884;12.598;2023-09-30T00:07:54;20.52;;;6.30;;
64653;SDS011;51065;48.884;12.598;2023-09-30T00:10:19;21.05;;;6.72;;
64653;SDS011;51065;48.884;12.598;2023-09-30T00:12:45;18.45;;;5.45;;
64653;SDS011;51065;48.884;12.598;2023-09-30T00:15:10;20.48;;;5.97;;
64653;SDS011;51065;48.884;12.598;2023-09-30T00:17:36;18.58;;;5.13;;
64653;SDS011;51065;48.884;12.598;2023-09-30T00:20:02;19.25;;;5.15;;
64653;SDS011;51065;48.884;12.598;2023-09-30T00:22:29;19.02;;;6.00;;
64653;SDS011;51065;48.884;12.598;2023-09-30T00:24:55;20.60;;;5.68;;
64653;SDS011;51065;48.884;12.598;2023-09-30T00:27:20;18.40;;;5.38;;
64653;SDS011;51065;48.884;12.598;2023-09-30T00:29:46;19.48;;;6.05;;
64653;SDS011;51065;48.884;12.598;2023-09-30T00:32:11;21.63;;;6.47;;
64653;SDS011;51065;48.884;12.598;2023-09-30T00:34:37;19.33;;;6.43;;
64653;SDS011;51065;48.884;12.598;2023-09-30T00:37:03;23.42;;;6.00;;
64653;SDS011;51065;48.884;12.598;2023-09-30T00:39:28;18.65;;;5.50;;
64653;SDS011;51065;48.884;12.598;2023-09-30T00:41:57;19.55;;;5.13;;
64653;SDS011;51065;48.884;12.598;2023-09-30T00:44:26;18.73;;;5.47;;
64653;SDS011;51065;48.884;12.598;2023-09-30T00:46:52;19.13;;;5.43;;
64653;SDS011;51065;48.884;12.598;2023-09-30T00:49:20;19.38;;;5.68;;
64653;SDS011;51065;48.884;12.598;2023-09-30T00:51:47;17.92;;;5.40;;
64653;SDS011;51065;48.884;12.598;2023-09-30T00:54:14;19.10;;;5.60;;
64653;SDS011;51065;48.884;12.598;2023-09-30T00:56:45;18.42;;;5.30;;
64653;SDS011;51065;48.884;12.598;2023-09-30T00:59:14;20.50;;;5.97;;
64653;SDS011;51065;48.884;12.598;2023-09-30T01:01:44;19.02;;;5.47;;
64653;SDS011;51065;48.884;12.598;2023-09-30T01:04:11;18.87;;;4.93;;
64653;SDS011;51065;48.884;12.598;2023-09-30T01:06:37;19.80;;;4.85;;
64653;SDS011;51065;48.884;12.598;2023-09-30T01:09:03;17.40;;;4.97;;
64653;SDS011;51065;48.884;12.598;2023-09-30T01:11:29;17.13;;;5.13;;
64653;SDS011;51065;48.884;12.598;2023-09-30T01:13:55;17.10;;;4.78;;
64653;SDS011;51065;48.884;12.598;2023-09-30T01:16:22;17.42;;;5.25;;
64653;SDS011;51065;48.884;12.598;2023-09-30T01:18:48;16.45;;;4.13;;
64653;SDS011;51065;48.884;12.598;2023-09-30T01:21:14;16.52;;;4.55;;
64653;SDS011;51065;48.884;12.598;2023-09-30T01:23:40;15.43;;;4.25;;
64653;SDS011;51065;48.884;12.598;2023-09-30T01:26:07;17.58;;;5.07;;
64653;SDS011;51065;48.884;12.598;2023-09-30T01:28:40;17.35;;;4.57;;
64653;SDS011;51065;48.884;12.598;2023-09-30T01:31:06;16.38;;;4.68;;
64653;SDS011;51065;48.884;12.598;2023-09-30T01:33:31;14.63;;;4.72;;
64653;SDS011;51065;48.884;12.598;2023-09-30T01:35:58;17.45;;;4.72;;
64653;SDS011;51065;48.884;12.598;2023-09-30T01:38:27;15.35;;;4.43;;
64653;SDS011;51065;48.884;12.598;2023-09-30T01:40:52;15.20;;;4.15;;
64653;SDS011;51065;48.884;12.598;2023-09-30T01:43:19;14.73;;;4.50;;
64653;SDS011;51065;48.884;12.598;2023-09-30T01:45:45;16.55;;;4.30;;
64653;SDS011;51065;48.884;12.598;2023-09-30T01:48:10;18.02;;;4.90;;
64653;SDS011;51065;48.884;12.598;2023-09-30T01:50:37;15.80;;;4.28;;
64653;SDS011;51065;48.884;12.598;2023-09-30T01:53:03;15.18;;;4.65;;
64653;SDS011;51065;48.884;12.598;2023-09-30T01:55:31;18.42;;;4.50;;
64653;SDS011;51065;48.884;12.598;2023-09-30T01:58:01;16.08;;;4.05;;
64653;SDS011;51065;48.884;12.598;2023-09-30T02:00:26;17.75;;;4.32;;
64653;SDS011;51065;48.884;12.598;2023-09-30T02:02:53;16.80;;;4.70;;
64653;SDS011;51065;48.884;12.598;2023-09-30T02:05:20;15.65;;;4.10;;
64653;SDS011;51065;48.884;12.598;2023-09-30T02:07:47;17.05;;;4.30;;
64653;SDS011;51065;48.884;12.598;2023-09-30T02:10:13;13.23;;;3.75;;
64653;SDS011;51065;48.884;12.598;2023-09-30T02:12:38;13.90;;;4.10;;
64653;SDS011;51065;48.884;12.598;2023-09-30T02:15:04;14.60;;;4.13;;
64653;SDS011;51065;48.884;12.598;2023-09-30T02:17:32;13.45;;;3.72;;
64653;SDS011;51065;48.884;12.598;2023-09-30T02:19:57;13.77;;;4.50;;
64653;SDS011;51065;48.884;12.598;2023-09-30T02:22:26;13.60;;;4.07;;
64653;SDS011;51065;48.884;12.598;2023-09-30T02:24:53;15.07;;;4.38;;
64653;SDS011;51065;48.884;12.598;2023-09-30T02:27:19;13.43;;;3.85;;
64653;SDS011;51065;48.884;12.598;2023-09-30T02:29:45;16.35;;;3.88;;
64653;SDS011;51065;48.884;12.598;2023-09-30T02:32:10;13.75;;;3.10;;
64653;SDS011;51065;48.884;12.598;2023-09-30T02:34:37;13.50;;;3.83;;
64653;SDS011;51065;48.884;12.598;2023-09-30T02:37:03;13.93;;;4.13;;
64653;SDS011;51065;48.884;12.598;2023-09-30T02:39:29;17.58;;;3.85;;
64653;SDS011;51065;48.884;12.598;2023-09-30T02:41:54;15.32;;;4.32;;
64653;SDS011;51065;48.884;12.598;2023-09-30T02:44:20;15.00;;;3.85;;
64653;SDS011;51065;48.884;12.598;2023-09-30T02:46:45;16.30;;;4.13;;
64653;SDS011;51065;48.884;12.598;2023-09-30T02:49:11;13.63;;;3.95;;
64653;SDS011;51065;48.884;12.598;2023-09-30T02:51:36;16.05;;;4.03;;
64653;SDS011;51065;48.884;12.598;2023-09-30T02:54:02;16.50;;;4.82;;
64653;SDS011;51065;48.884;12.598;2023-09-30T02:56:28;16.00;;;4.30;;
64653;SDS011;51065;48.884;12.598;2023-09-30T02:58:55;15.38;;;3.60;;
64653;SDS011;51065;48.884;12.598;2023-09-30T03:01:21;14.23;;;3.78;;
64653;SDS011;51065;48.884;12.598;2023-09-30T03:03:47;15.75;;;4.60;;
64653;SDS011;51065;48.884;12.598;2023-09-30T03:06:12;13.85;;;3.90;;
64653;SDS011;51065;48.884;12.598;2023-09-30T03:08:39;16.33;;;4.10;;
64653;SDS011;51065;48.884;12.598;2023-09-30T03:11:06;14.63;;;3.83;;
64653;SDS011;51065;48.884;12.598;2023-09-30T03:13:32;16.40;;;4.13;;
64653;SDS011;51065;48.884;12.598;2023-09-30T03:15:58;17.38;;;4.28;;
64653;SDS011;51065;48.884;12.598;2023-09-30T03:18:23;13.60;;;3.83;;
64653;SDS011;51065;48.884;12.598;2023-09-30T03:20:58;14.32;;;3.78;;
64653;SDS011;51065;48.884;12.598;2023-09-30T03:23:33;15.60;;;4.10;;
64653;SDS011;51065;48.884;12.598;2023-09-30T03:26:00;14.77;;;4.28;;
64653;SDS011;51065;48.884;12.598;2023-09-30T03:28:26;15.13;;;3.60;;
64653;SDS011;51065;48.884;12.598;2023-09-30T03:30:52;17.50;;;4.47;;
64653;SDS011;51065;48.884;12.598;2023-09-30T03:33:17;13.38;;;4.50;;
64653;SDS011;51065;48.884;12.598;2023-09-30T03:35:43;14.68;;;3.97;;
64653;SDS011;51065;48.884;12.598;2023-09-30T03:38:10;12.63;;;4.10;;
64653;SDS011;51065;48.884;12.598;2023-09-30T03:40:37;11.63;;;3.63;;
64653;SDS011;51065;48.884;12.598;2023-09-30T03:43:04;14.38;;;3.90;;
64653;SDS011;51065;48.884;12.598;2023-09-30T03:45:33;15.50;;;4.20;;
64653;SDS011;51065;48.884;12.598;2023-09-30T03:47:59;12.50;;;3.58;;
64653;SDS011;51065;48.884;12.598;2023-09-30T03:50:26;14.57;;;3.88;;
64653;SDS011;51065;48.884;12.598;2023-09-30T03:53:00;15.35;;;3.88;;
64653;SDS011;51065;48.884;12.598;2023-09-30T03:55:33;14.50;;;4.03;;
64653;SDS011;51065;48.884;12.598;2023-09-30T03:57:58;15.45;;;4.72;;
64653;SDS011;51065;48.884;12.598;2023-09-30T04:00:24;17.08;;;3.67;;
64653;SDS011;51065;48.884;12.598;2023-09-30T04:02:53;15.80;;;4.07;;
64653;SDS011;51065;48.884;12.598;2023-09-30T04:05:23;15.52;;;4.30;;
64653;SDS011;51065;48.884;12.598;2023-09-30T04:07:54;13.95;;;4.05;;
64653;SDS011;51065;48.884;12.598;2023-09-30T04:10:20;15.57;;;4.05;;
64653;SDS011;51065;48.884;12.598;2023-09-30T04:12:47;18.10;;;3.90;;
64653;SDS011;51065;48.884;12.598;2023-09-30T04:15:13;15.88;;;4.60;;
64653;SDS011;51065;48.884;12.598;2023-09-30T04:17:39;16.20;;;4.50;;
64653;SDS011;51065;48.884;12.598;2023-09-30T04:20:05;13.73;;;3.95;;
64653;SDS011;51065;48.884;12.598;2023-09-30T04:22:36;14.10;;;3.65;;
64653;SDS011;51065;48.884;12.598;2023-09-30T04:25:03;15.60;;;4.82;;
64653;SDS011;51065;48.884;12.598;2023-09-30T04:27:34;15.13;;;4.20;;
64653;SDS011;51065;48.884;12.598;2023-09-30T04:30:00;14.90;;;4.38;;
64653;SDS011;51065;48.884;12.598;2023-09-30T04:32:32;16.20;;;4.65;;
64653;SDS011;51065;48.884;12.598;2023-09-30T04:34:58;16.95;;;4.82;;
64653;SDS011;51065;48.884;12.598;2023-09-30T04:37:25;14.57;;;4.25;;
64653;SDS011;51065;48.884;12.598;2023-09-30T04:39:50;17.35;;;4.30;;
64653;SDS011;51065;48.884;12.598;2023-09-30T04:42:16;14.23;;;4.13;;
64653;SDS011;51065;48.884;12.598;2023-09-30T04:44:42;16.58;;;4.32;;
64653;SDS011;51065;48.884;12.598;2023-09-30T04:47:08;16.90;;;4.68;;
64653;SDS011;51065;48.884;12.598;2023-09-30T04:49:34;14.02;;;4.13;;
64653;SDS011;51065;48.884;12.598;2023-09-30T04:52:00;16.75;;;4.65;;
64653;SDS011;51065;48.884;12.598;2023-09-30T04:54:26;15.15;;;4.28;;
64653;SDS011;51065;48.884;12.598;2023-09-30T04:56:51;12.98;;;4.22;;
64653;SDS011;51065;48.884;12.598;2023-09-30T04:59:17;15.45;;;4.05;;
64653;SDS011;51065;48.884;12.598;2023-09-30T05:01:43;17.50;;;4.43;;
64653;SDS011;51065;48.884;12.598;2023-09-30T05:04:08;14.07;;;4.28;;
64653;SDS011;51065;48.884;12.598;2023-09-30T05:06:34;16.08;;;5.00;;
64653;SDS011;51065;48.884;12.598;2023-09-30T05:09:01;11.93;;;4.00;;
64653;SDS011;51065;48.884;12.598;2023-09-30T05:11:27;14.43;;;3.63;;
64653;SDS011;51065;48.884;12.598;2023-09-30T05:13:53;12.10;;;4.00;;
64653;SDS011;51065;48.884;12.598;2023-09-30T05:16:18;12.00;;;3.72;;
64653;SDS011;51065;48.884;12.598;2023-09-30T05:18:44;14.02;;;3.60;;
64653;SDS011;51065;48.884;12.598;2023-09-30T05:21:09;17.15;;;4.57;;
64653;SDS011;51065;48.884;12.598;2023-09-30T05:23:36;15.25;;;4.05;;
64653;SDS011;51065;48.884;12.598;2023-09-30T05:26:02;15.23;;;3.95;;
64653;SDS011;51065;48.884;12.598;2023-09-30T05:28:28;14.27;;;4.45;;
64653;SDS011;51065;48.884;12.598;2023-09-30T05:30:53;14.40;;;3.70;;
64653;SDS011;51065;48.884;12.598;2023-09-30T05:33:19;18.95;;;4.25;;
64653;SDS011;51065;48.884;12.598;2023-09-30T05:35:44;14.13;;;3.95;;
64653;SDS011;51065;48.884;12.598;2023-09-30T05:38:11;13.32;;;3.88;;
64653;SDS011;51065;48.884;12.598;2023-09-30T05:40:38;11.85;;;3.50;;
64653;SDS011;51065;48.884;12.598;2023-09-30T05:43:04;14.15;;;3.88;;
64653;SDS011;51065;48.884;12.598;2023-09-30T05:45:31;14.20;;;3.70;;
64653;SDS011;51065;48.884;12.598;2023-09-30T05:48:03;11.80;;;3.33;;
64653;SDS011;51065;48.884;12.598;2023-09-30T05:50:32;15.82;;;3.97;;
64653;SDS011;51065;48.884;12.598;2023-09-30T05:53:01;14.52;;;3.78;;
64653;SDS011;51065;48.884;12.598;2023-09-30T05:55:27;14.40;;;3.50;;
64653;SDS011;51065;48.884;12.598;2023-09-30T05:57:53;17.42;;;3.60;;
64653;SDS011;51065;48.884;12.598;2023-09-30T06:00:19;12.68;;;3.47;;
64653;SDS011;51065;48.884;12.598;2023-09-30T06:02:48;11.95;;;3.63;;
64653;SDS011;51065;48.884;12.598;2023-09-30T06:05:16;13.18;;;3.83;;
64653;SDS011;51065;48.884;12.598;2023-09-30T06:07:44;11.40;;;3.38;;
64653;SDS011;51065;48.884;12.598;2023-09-30T06:10:11;13.65;;;3.95;;
64653;SDS011;51065;48.884;12.598;2023-09-30T06:12:38;11.27;;;3.75;;
64653;SDS011;51065;48.884;12.598;2023-09-30T06:15:03;13.10;;;3.20;;
64653;SDS011;51065;48.884;12.598;2023-09-30T06:17:30;13.95;;;3.60;;
64653;SDS011;51065;48.884;12.598;2023-09-30T06:19:58;12.32;;;3.78;;
64653;SDS011;51065;48.884;12.598;2023-09-30T06:22:32;10.07;;;3.13;;
64653;SDS011;51065;48.884;12.598;2023-09-30T06:24:58;12.05;;;3.60;;
64653;SDS011;51065;48.884;12.598;2023-09-30T06:27:23;10.05;;;3.42;;
64653;SDS011;51065;48.884;12.598;2023-09-30T06:29:49;8.68;;;2.83;;
64653;SDS011;51065;48.884;12.598;2023-09-30T06:32:14;10.25;;;3.13;;
64653;SDS011;51065;48.884;12.598;2023-09-30T06:34:40;13.15;;;3.58;;
64653;SDS011;51065;48.884;12.598;2023-09-30T06:37:06;9.82;;;2.97;;
64653;SDS011;51065;48.884;12.598;2023-09-30T06:39:33;9.60;;;2.65;;
64653;SDS011;51065;48.884;12.598;2023-09-30T06:41:59;10.63;;;3.45;;
64653;SDS011;51065;48.884;12.598;2023-09-30T06:44:24;13.15;;;3.35;;
64653;SDS011;51065;48.884;12.598;2023-09-30T06:46:50;9.70;;;2.60;;
64653;SDS011;51065;48.884;12.598;2023-09-30T06:49:16;11.10;;;2.92;;
64653;SDS011;51065;48.884;12.598;2023-09-30T06:51:41;9.27;;;2.60;;
64653;SDS011;51065;48.884;12.598;2023-09-30T06:54:07;9.63;;;2.53;;
64653;SDS011;51065;48.884;12.598;2023-09-30T06:56:33;12.23;;;3.15;;
64653;SDS011;51065;48.884;12.598;2023-09-30T06:58:58;11.90;;;3.00;;
64653;SDS011;51065;48.884;12.598;2023-09-30T07:01:24;7.85;;;2.85;;
64653;SDS011;51065;48.884;12.598;2023-09-30T07:03:50;11.27;;;3.08;;
64653;SDS011;51065;48.884;12.598;2023-09-30T07:06:23;9.73;;;2.60;;
64653;SDS011;51065;48.884;12.598;2023-09-30T07:08:49;11.75;;;3.33;;
64653;SDS011;51065;48.884;12.598;2023-09-30T07:11:15;7.03;;;2.63;;
64653;SDS011;51065;48.884;12.598;2023-09-30T07:13:41;8.20;;;2.85;;
64653;SDS011;51065;48.884;12.598;2023-09-30T07:16:06;11.63;;;2.80;;
64653;SDS011;51065;48.884;12.598;2023-09-30T07:18:32;11.30;;;3.08;;
64653;SDS011;51065;48.884;12.598;2023-09-30T07:20:57;8.07;;;2.47;;
64653;SDS011;51065;48.884;12.598;2023-09-30T07:23:23;10.55;;;2.88;;
64653;SDS011;51065;48.884;12.598;2023-09-30T07:25:49;7.95;;;2.50;;
64653;SDS011;51065;48.884;12.598;2023-09-30T07:28:15;7.70;;;2.58;;
64653;SDS011;51065;48.884;12.598;2023-09-30T07:30:40;8.93;;;3.20;;
64653;SDS011;51065;48.884;12.598;2023-09-30T07:33:06;8.05;;;2.63;;
64653;SDS011;51065;48.884;12.598;2023-09-30T07:35:33;8.77;;;3.05;;
64653;SDS011;51065;48.884;12.598;2023-09-30T07:37:59;6.93;;;2.50;;
64653;SDS011;51065;48.884;12.598;2023-09-30T07:40:25;11.98;;;3.30;;
64653;SDS011;51065;48.884;12.598;2023-09-30T07:42:50;10.38;;;2.80;;
64653;SDS011;51065;48.884;12.598;2023-09-30T07:45:16;9.55;;;2.70;;
64653;SDS011;51065;48.884;12.598;2023-09-30T07:47:44;7.18;;;2.40;;
64653;SDS011;51065;48.884;12.598;2023-09-30T07:50:11;11.23;;;2.92;;
64653;SDS011;51065;48.884;12.598;2023-09-30T07:52:37;7.65;;;2.60;;
64653;SDS011;51065;48.884;12.598;2023-09-30T07:55:07;9.18;;;2.72;;
64653;SDS011;51065;48.884;12.598;2023-09-30T07:57:34;10.38;;;2.58;;
64653;SDS011;51065;48.884;12.598;2023-09-30T07:59:59;11.15;;;3.00;;
64653;SDS011;51065;48.884;12.598;2023-09-30T08:02:25;8.20;;;2.75;;
64653;SDS011;51065;48.884;12.598;2023-09-30T08:04:58;8.10;;;2.17;;
64653;SDS011;51065;48.884;12.598;2023-09-30T08:07:24;8.00;;;2.42;;
64653;SDS011;51065;48.884;12.598;2023-09-30T08:09:50;7.75;;;2.00;;
64653;SDS011;51065;48.884;12.598;2023-09-30T08:12:16;6.53;;;2.20;;
64653;SDS011;51065;48.884;12.598;2023-09-30T08:14:41;7.55;;;2.13;;
64653;SDS011;51065;48.884;12.598;2023-09-30T08:17:09;8.40;;;2.30;;
64653;SDS011;51065;48.884;12.598;2023-09-30T08:19:35;8.60;;;2.67;;
64653;SDS011;51065;48.884;12.598;2023-09-30T08:22:01;8.40;;;2.17;;
64653;SDS011;51065;48.884;12.598;2023-09-30T08:24:28;7.60;;;2.22;;
64653;SDS011;51065;48.884;12.598;2023-09-30T08:26:54;5.90;;;1.98;;
64653;SDS011;51065;48.884;12.598;2023-09-30T08:29:21;7.00;;;2.08;;
64653;SDS011;51065;48.884;12.598;2023-09-30T08:31:47;7.20;;;1.88;;
64653;SDS011;51065;48.884;12.598;2023-09-30T08:34:15;6.05;;;1.55;;
64653;SDS011;51065;48.884;12.598;2023-09-30T08:36:42;7.13;;;1.88;;
64653;SDS011;51065;48.884;12.598;2023-09-30T08:39:07;7.38;;;1.85;;
64653;SDS011;51065;48.884;12.598;2023-09-30T08:41:35;6.05;;;2.05;;
64653;SDS011;51065;48.884;12.598;2023-09-30T08:44:01;5.95;;;2.08;;
64653;SDS011;51065;48.884;12.598;2023-09-30T08:46:31;8.10;;;2.15;;
64653;SDS011;51065;48.884;12.598;2023-09-30T08:48:59;6.82;;;1.67;;
64653;SDS011;51065;48.884;12.598;2023-09-30T08:51:26;5.68;;;1.83;;
64653;SDS011;51065;48.884;12.598;2023-09-30T08:53:54;6.22;;;1.60;;
64653;SDS011;51065;48.884;12.598;2023-09-30T08:56:22;6.75;;;1.90;;
64653;SDS011;51065;48.884;12.598;2023-09-30T08:58:51;8.80;;;1.70;;
64653;SDS011;51065;48.884;12.598;2023-09-30T09:01:19;5.55;;;1.73;;
64653;SDS011;51065;48.884;12.598;2023-09-30T09:03:45;3.47;;;1.60;;
64653;SDS011;51065;48.884;12.598;2023-09-30T09:06:17;4.95;;;1.40;;
64653;SDS011;51065;48.884;12.598;2023-09-30T09:08:44;4.75;;;1.40;;
64653;SDS011;51065;48.884;12.598;2023-09-30T09:11:09;5.78;;;1.60;;
64653;SDS011;51065;48.884;12.598;2023-09-30T09:13:45;3.05;;;1.40;;
64653;SDS011;51065;48.884;12.598;2023-09-30T09:16:10;3.83;;;1.27;;
64653;SDS011;51065;48.884;12.598;2023-09-30T09:18:36;4.88;;;1.50;;
64653;SDS011;51065;48.884;12.598;2023-09-30T09:21:12;4.93;;;1.25;;
64653;SDS011;51065;48.884;12.598;2023-09-30T09:23:40;3.08;;;1.20;;
64653;SDS011;51065;48.884;12.598;2023-09-30T09:26:06;3.33;;;1.33;;
64653;SDS011;51065;48.884;12.598;2023-09-30T09:28:36;4.13;;;1.25;;
64653;SDS011;51065;48.884;12.598;2023-09-30T09:31:18;4.22;;;1.17;;
64653;SDS011;51065;48.884;12.598;2023-09-30T09:33:48;4.07;;;1.50;;
64653;SDS011;51065;48.884;12.598;2023-09-30T09:36:15;3.97;;;1.20;;
64653;SDS011;51065;48.884;12.598;2023-09-30T09:38:44;4.28;;;1.35;;
64653;SDS011;51065;48.884;12.598;2023-09-30T09:41:10;2.75;;;1.00;;
64653;SDS011;51065;48.884;12.598;2023-09-30T09:43:36;2.20;;;1.05;;
64653;SDS011;51065;48.884;12.598;2023-09-30T09:46:04;5.95;;;1.38;;
64653;SDS011;51065;48.884;12.598;2023-09-30T09:48:33;3.10;;;0.85;;
64653;SDS011;51065;48.884;12.598;2023-09-30T09:51:00;2.97;;;1.30;;
64653;SDS011;51065;48.884;12.598;2023-09-30T09:53:28;5.78;;;1.30;;
64653;SDS011;51065;48.884;12.598;2023-09-30T09:55:56;5.65;;;1.27;;
64653;SDS011;51065;48.884;12.598;2023-09-30T09:58:23;3.22;;;1.02;;
64653;SDS011;51065;48.884;12.598;2023-09-30T10:00:49;3.30;;;1.30;;
64653;SDS011;51065;48.884;12.598;2023-09-30T10:03:16;4.10;;;1.10;;
64653;SDS011;51065;48.884;12.598;2023-09-30T10:05:42;3.75;;;1.33;;
64653;SDS011;51065;48.884;12.598;2023-09-30T10:08:11;2.53;;;1.10;;
64653;SDS011;51065;48.884;12.598;2023-09-30T10:10:42;3.65;;;1.02;;
64653;SDS011;51065;48.884;12.598;2023-09-30T10:13:09;3.70;;;0.90;;
64653;SDS011;51065;48.884;12.598;2023-09-30T10:15:55;2.08;;;0.77;;
64653;SDS011;51065;48.884;12.598;2023-09-30T10:18:20;1.17;;;0.60;;
64653;SDS011;51065;48.884;12.598;2023-09-30T10:20:46;2.25;;;0.68;;
64653;SDS011;51065;48.884;12.598;2023-09-30T10:28:46;1.50;;;0.60;;
64653;SDS011;51065;48.884;12.598;2023-09-30T10:31:16;2.00;;;0.70;;
64653;SDS011;51065;48.884;12.598;2023-09-30T10:36:34;0.95;;;0.40;;
64653;SDS011;51065;48.884;12.598;2023-09-30T10:39:03;2.20;;;0.70;;
64653;SDS011;51065;48.884;12.598;2023-09-30T10:46:50;0.77;;;0.40;;
64653;SDS011;51065;48.884;12.598;2023-09-30T10:51:51;0.85;;;0.40;;
64653;SDS011;51065;48.884;12.598;2023-09-30T10:54:25;0.35;;;0.35;;
64653;SDS011;51065;48.884;12.598;2023-09-30T10:56:52;0.25;;;0.20;;
64653;SDS011;51065;48.884;12.598;2023-09-30T10:59:19;0.38;;;0.25;;
64653;SDS011;51065;48.884;12.598;2023-09-30T11:04:15;1.00;;;0.63;;
64653;SDS011;51065;48.884;12.598;2023-09-30T11:06:42;0.70;;;0.32;;
64653;SDS011;51065;48.884;12.598;2023-09-30T11:09:08;0.22;;;0.20;;
64653;SDS011;51065;48.884;12.598;2023-09-30T11:14:27;0.38;;;0.38;;
64653;SDS011;51065;48.884;12.598;2023-09-30T11:16:56;0.47;;;0.32;;
64653;SDS011;51065;48.884;12.598;2023-09-30T11:19:36;0.60;;;0.30;;
64653;SDS011;51065;48.884;12.598;2023-09-30T11:22:15;1.02;;;0.50;;
64653;SDS011;51065;48.884;12.598;2023-09-30T11:24:41;0.68;;;0.52;;
64653;SDS011;51065;48.884;12.598;2023-09-30T11:27:06;0.30;;;0.20;;
64653;SDS011;51065;48.884;12.598;2023-09-30T11:29:34;0.30;;;0.30;;
64653;SDS011;51065;48.884;12.598;2023-09-30T11:31:59;0.75;;;0.40;;
64653;SDS011;51065;48.884;12.598;2023-09-30T11:34:33;0.30;;;0.30;;
64653;SDS011;51065;48.884;12.598;2023-09-30T11:37:00;0.30;;;0.30;;
64653;SDS011;51065;48.884;12.598;2023-09-30T11:39:27;0.28;;;0.28;;
64653;SDS011;51065;48.884;12.598;2023-09-30T11:41:54;1.63;;;0.20;;
64653;SDS011;51065;48.884;12.598;2023-09-30T11:44:21;0.20;;;0.20;;
64653;SDS011;51065;48.884;12.598;2023-09-30T11:49:24;0.98;;;0.30;;
64653;SDS011;51065;48.884;12.598;2023-09-30T11:51:50;0.15;;;0.15;;
64653;SDS011;51065;48.884;12.598;2023-09-30T11:54:16;0.17;;;0.17;;
64653;SDS011;51065;48.884;12.598;2023-09-30T11:56:41;0.85;;;0.20;;
64653;SDS011;51065;48.884;12.598;2023-09-30T11:59:07;1.50;;;0.38;;
64653;SDS011;51065;48.884;12.598;2023-09-30T12:01:35;0.95;;;0.20;;
64653;SDS011;51065;48.884;12.598;2023-09-30T12:04:04;0.10;;;0.10;;
64653;SDS011;51065;48.884;12.598;2023-09-30T12:06:30;0.20;;;0.20;;
64653;SDS011;51065;48.884;12.598;2023-09-30T12:08:56;1.13;;;0.40;;
64653;SDS011;51065;48.884;12.598;2023-09-30T12:11:22;0.30;;;0.20;;
64653;SDS011;51065;48.884;12.598;2023-09-30T12:13:49;1.25;;;0.22;;
64653;SDS011;51065;48.884;12.598;2023-09-30T12:16:15;1.00;;;0.40;;
64653;SDS011;51065;48.884;12.598;2023-09-30T12:18:41;1.08;;;0.20;;
64653;SDS011;51065;48.884;12.598;2023-09-30T12:21:09;0.50;;;0.20;;
64653;SDS011;51065;48.884;12.598;2023-09-30T12:23:35;0.38;;;0.20;;
64653;SDS011;51065;48.884;12.598;2023-09-30T12:26:01;2.47;;;0.30;;
64653;SDS011;51065;48.884;12.598;2023-09-30T12:28:30;0.30;;;0.30;;
64653;SDS011;51065;48.884;12.598;2023-09-30T12:31:01;0.20;;;0.20;;
64653;SDS011;51065;48.884;12.598;2023-09-30T12:33:27;2.03;;;0.50;;
64653;SDS011;51065;48.884;12.598;2023-09-30T12:35:53;0.60;;;0.30;;
64653;SDS011;51065;48.884;12.598;2023-09-30T12:38:19;0.90;;;0.55;;
64653;SDS011;51065;48.884;12.598;2023-09-30T12:40:44;0.77;;;0.30;;
64653;SDS011;51065;48.884;12.598;2023-09-30T12:43:10;1.13;;;0.35;;
64653;SDS011;51065;48.884;12.598;2023-09-30T12:45:35;0.82;;;0.43;;
64653;SDS011;51065;48.884;12.598;2023-09-30T12:48:03;1.45;;;0.70;;
64653;SDS011;51065;48.884;12.598;2023-09-30T12:50:29;2.25;;;0.60;;
64653;SDS011;51065;48.884;12.598;2023-09-30T12:52:55;1.42;;;0.65;;
64653;SDS011;51065;48.884;12.598;2023-09-30T12:55:20;1.77;;;0.60;;
64653;SDS011;51065;48.884;12.598;2023-09-30T12:57:46;0.75;;;0.40;;
64653;SDS011;51065;48.884;12.598;2023-09-30T13:00:12;2.78;;;0.65;;
64653;SDS011;51065;48.884;12.598;2023-09-30T13:02:40;0.50;;;0.30;;
64653;SDS011;51065;48.884;12.598;2023-09-30T13:05:06;61.50;;;10.70;;
64653;SDS011;51065;48.884;12.598;2023-09-30T13:07:33;6.35;;;0.90;;
64653;SDS011;51065;48.884;12.598;2023-09-30T13:09:59;1.98;;;0.82;;
64653;SDS011;51065;48.884;12.598;2023-09-30T13:12:25;2.47;;;0.85;;
64653;SDS011;51065;48.884;12.598;2023-09-30T13:14:52;6.65;;;1.30;;
64653;SDS011;51065;48.884;12.598;2023-09-30T13:17:21;1.20;;;0.70;;
64653;SDS011;51065;48.884;12.598;2023-09-30T13:19:47;2.97;;;0.80;;
64653;SDS011;51065;48.884;12.598;2023-09-30T13:22:12;2.15;;;0.85;;
64653;SDS011;51065;48.884;12.598;2023-09-30T13:24:38;1.42;;;0.65;;
64653;SDS011;51065;48.884;12.598;2023-09-30T13:27:04;2.00;;;0.75;;
64653;SDS011;51065;48.884;12.598;2023-09-30T13:29:31;1.20;;;0.70;;
64653;SDS011;51065;48.884;12.598;2023-09-30T13:31:57;2.67;;;0.90;;
64653;SDS011;51065;48.884;12.598;2023-09-30T13:34:22;4.72;;;1.10;;
64653;SDS011;51065;48.884;12.598;2023-09-30T13:36:48;2.65;;;1.13;;
64653;SDS011;51065;48.884;12.598;2023-09-30T13:39:13;1.73;;;0.95;;
64653;SDS011;51065;48.884;12.598;2023-09-30T13:41:42;4.07;;;1.15;;
64653;SDS011;51065;48.884;12.598;2023-09-30T13:44:12;2.40;;;1.25;;
64653;SDS011;51065;48.884;12.598;2023-09-30T13:46:38;1.92;;;1.17;;
64653;SDS011;51065;48.884;12.598;2023-09-30T13:49:04;3.80;;;1.20;;
64653;SDS011;51065;48.884;12.598;2023-09-30T13:51:30;2.83;;;0.90;;
64653;SDS011;51065;48.884;12.598;2023-09-30T13:53:55;2.97;;;1.00;;
64653;SDS011;51065;48.884;12.598;2023-09-30T13:56:21;2.30;;;1.05;;
64653;SDS011;51065;48.884;12.598;2023-09-30T13:58:47;1.60;;;0.88;;
64653;SDS011;51065;48.884;12.598;2023-09-30T14:01:14;2.42;;;1.20;;
64653;SDS011;51065;48.884;12.598;2023-09-30T14:03:40;2.92;;;1.17;;
64653;SDS011;51065;48.884;12.598;2023-09-30T14:06:14;3.83;;;1.15;;
64653;SDS011;51065;48.884;12.598;2023-09-30T14:08:40;3.40;;;1.20;;
64653;SDS011;51065;48.884;12.598;2023-09-30T14:11:09;2.17;;;0.98;;
64653;SDS011;51065;48.884;12.598;2023-09-30T14:13:37;3.33;;;1.40;;
64653;SDS011;51065;48.884;12.598;2023-09-30T14:16:04;3.28;;;1.10;;
64653;SDS011;51065;48.884;12.598;2023-09-30T14:18:30;2.65;;;1.10;;
64653;SDS011;51065;48.884;12.598;2023-09-30T14:20:56;2.75;;;1.20;;
64653;SDS011;51065;48.884;12.598;2023-09-30T14:23:21;2.67;;;1.30;;
64653;SDS011;51065;48.884;12.598;2023-09-30T14:25:49;2.72;;;1.00;;
64653;SDS011;51065;48.884;12.598;2023-09-30T14:28:14;2.78;;;1.17;;
64653;SDS011;51065;48.884;12.598;2023-09-30T14:30:40;4.18;;;1.25;;
64653;SDS011;51065;48.884;12.598;2023-09-30T14:33:05;2.83;;;1.20;;
64653;SDS011;51065;48.884;12.598;2023-09-30T14:35:34;2.78;;;1.00;;
64653;SDS011;51065;48.884;12.598;2023-09-30T14:37:59;2.03;;;1.05;;
64653;SDS011;51065;48.884;12.598;2023-09-30T14:40:27;4.13;;;1.20;;
64653;SDS011;51065;48.884;12.598;2023-09-30T14:42:52;3.90;;;1.23;;
64653;SDS011;51065;48.884;12.598;2023-09-30T14:45:19;3.60;;;1.20;;
64653;SDS011;51065;48.884;12.598;2023-09-30T14:47:46;2.08;;;0.85;;
64653;SDS011;51065;48.884;12.598;2023-09-30T14:50:12;4.78;;;1.40;;